sensor_id;sensor_type;location;lat;lon;timestamp;temperature;humidity
33508;DHT22;25568;37.410;-122.096;2023-02-18T00:02:00;18.70;70.40
33508;DHT22;25568;37.410;-122.096;2023-02-18T00:04:29;18.70;70.40
33508;DHT22;25568;37.410;-122.096;2023-02-18T00:06:58;18.70;70.30
33508;DHT22;25568;37.410;-122.096;2023-02-18T00:09:27;18.70;70.20
33508;DHT22;25568;37.410;-122.096;2023-02-18T00:11:56;18.70;70.30
33508;DHT22;25568;37.410;-122.096;2023-02-18T00:14:24;18.70;70.00
33508;DHT22;25568;37.410;-122.096;2023-02-18T00:16:53;18.70;70.10
33508;DHT22;25568;37.410;-122.096;2023-02-18T00:19:24;18.70;70.00
33508;DHT22;25568;37.410;-122.096;2023-02-18T00:21:53;18.70;69.90
33508;DHT22;25568;37.410;-122.096;2023-02-18T00:24:22;18.70;69.90
33508;DHT22;25568;37.410;-122.096;2023-02-18T00:26:52;18.70;69.90
33508;DHT22;25568;37.410;-122.096;2023-02-18T00:29:21;18.70;70.00
33508;DHT22;25568;37.410;-122.096;2023-02-18T00:31:50;18.70;70.20
33508;DHT22;25568;37.410;-122.096;2023-02-18T00:34:19;18.70;70.10
33508;DHT22;25568;37.410;-122.096;2023-02-18T00:36:49;18.70;69.90
33508;DHT22;25568;37.410;-122.096;2023-02-18T00:39:18;18.70;69.80
33508;DHT22;25568;37.410;-122.096;2023-02-18T00:41:47;18.70;69.70
33508;DHT22;25568;37.410;-122.096;2023-02-18T00:44:16;18.70;69.50
33508;DHT22;25568;37.410;-122.096;2023-02-18T00:46:45;18.70;69.40
33508;DHT22;25568;37.410;-122.096;2023-02-18T00:49:15;18.70;69.30
33508;DHT22;25568;37.410;-122.096;2023-02-18T00:51:44;18.80;69.30
33508;DHT22;25568;37.410;-122.096;2023-02-18T00:54:15;18.70;69.20
33508;DHT22;25568;37.410;-122.096;2023-02-18T00:56:44;18.80;69.20
33508;DHT22;25568;37.410;-122.096;2023-02-18T00:59:12;18.70;69.10
33508;DHT22;25568;37.410;-122.096;2023-02-18T01:01:41;18.80;69.20
33508;DHT22;25568;37.410;-122.096;2023-02-18T01:04:10;18.80;69.00
33508;DHT22;25568;37.410;-122.096;2023-02-18T01:06:39;18.80;69.20
33508;DHT22;25568;37.410;-122.096;2023-02-18T01:09:08;18.80;69.30
33508;DHT22;25568;37.410;-122.096;2023-02-18T01:11:39;18.80;69.30
33508;DHT22;25568;37.410;-122.096;2023-02-18T01:14:08;18.80;69.40
33508;DHT22;25568;37.410;-122.096;2023-02-18T01:16:37;18.80;69.30
33508;DHT22;25568;37.410;-122.096;2023-02-18T01:19:05;18.80;69.30
33508;DHT22;25568;37.410;-122.096;2023-02-18T01:21:34;18.80;69.40
33508;DHT22;25568;37.410;-122.096;2023-02-18T01:24:04;18.80;69.70
33508;DHT22;25568;37.410;-122.096;2023-02-18T01:26:33;18.80;69.70
33508;DHT22;25568;37.410;-122.096;2023-02-18T01:29:03;18.80;69.60
33508;DHT22;25568;37.410;-122.096;2023-02-18T01:31:32;18.80;69.60
33508;DHT22;25568;37.410;-122.096;2023-02-18T01:34:01;18.80;69.70
33508;DHT22;25568;37.410;-122.096;2023-02-18T01:36:31;18.80;69.70
33508;DHT22;25568;37.410;-122.096;2023-02-18T01:39:00;18.80;69.70
33508;DHT22;25568;37.410;-122.096;2023-02-18T01:41:28;18.90;69.70
33508;DHT22;25568;37.410;-122.096;2023-02-18T01:44:16;18.80;69.70
33508;DHT22;25568;37.410;-122.096;2023-02-18T01:46:45;18.90;69.80
33508;DHT22;25568;37.410;-122.096;2023-02-18T01:49:17;18.80;69.80
33508;DHT22;25568;37.410;-122.096;2023-02-18T01:51:49;18.80;69.80
33508;DHT22;25568;37.410;-122.096;2023-02-18T01:54:23;18.90;69.80
33508;DHT22;25568;37.410;-122.096;2023-02-18T01:56:58;18.90;69.80
33508;DHT22;25568;37.410;-122.096;2023-02-18T01:59:32;18.90;69.80
33508;DHT22;25568;37.410;-122.096;2023-02-18T02:02:02;18.90;69.80
33508;DHT22;25568;37.410;-122.096;2023-02-18T02:04:32;18.90;69.90
33508;DHT22;25568;37.410;-122.096;2023-02-18T02:07:01;18.90;69.80
33508;DHT22;25568;37.410;-122.096;2023-02-18T02:09:32;18.90;69.80
33508;DHT22;25568;37.410;-122.096;2023-02-18T02:12:31;18.80;69.90
33508;DHT22;25568;37.410;-122.096;2023-02-18T02:15:33;18.80;69.90
33508;DHT22;25568;37.410;-122.096;2023-02-18T02:18:14;18.90;70.00
33508;DHT22;25568;37.410;-122.096;2023-02-18T02:21:06;18.80;70.20
33508;DHT22;25568;37.410;-122.096;2023-02-18T02:23:55;18.80;70.50
33508;DHT22;25568;37.410;-122.096;2023-02-18T02:26:51;18.80;70.80
33508;DHT22;25568;37.410;-122.096;2023-02-18T02:29:50;18.80;70.90
33508;DHT22;25568;37.410;-122.096;2023-02-18T02:35:44;18.80;71.30
33508;DHT22;25568;37.410;-122.096;2023-02-18T02:38:20;18.80;71.50
33508;DHT22;25568;37.410;-122.096;2023-02-18T02:40:56;18.80;71.60
33508;DHT22;25568;37.410;-122.096;2023-02-18T02:43:32;18.80;71.70
33508;DHT22;25568;37.410;-122.096;2023-02-18T02:46:08;18.80;71.80
33508;DHT22;25568;37.410;-122.096;2023-02-18T02:48:44;18.80;71.80
33508;DHT22;25568;37.410;-122.096;2023-02-18T02:51:23;18.80;71.80
33508;DHT22;25568;37.410;-122.096;2023-02-18T02:53:53;18.80;71.80
33508;DHT22;25568;37.410;-122.096;2023-02-18T02:56:23;18.80;71.90
33508;DHT22;25568;37.410;-122.096;2023-02-18T02:58:58;18.80;71.90
33508;DHT22;25568;37.410;-122.096;2023-02-18T03:01:37;18.80;72.00
33508;DHT22;25568;37.410;-122.096;2023-02-18T03:04:42;18.80;72.10
33508;DHT22;25568;37.410;-122.096;2023-02-18T03:10:28;18.80;72.30
33508;DHT22;25568;37.410;-122.096;2023-02-18T03:13:09;18.80;72.00
33508;DHT22;25568;37.410;-122.096;2023-02-18T03:18:34;18.80;71.80
33508;DHT22;25568;37.410;-122.096;2023-02-18T03:21:09;18.80;71.70
33508;DHT22;25568;37.410;-122.096;2023-02-18T03:23:45;18.80;71.80
33508;DHT22;25568;37.410;-122.096;2023-02-18T03:26:18;18.70;71.80
33508;DHT22;25568;37.410;-122.096;2023-02-18T03:28:50;18.70;71.80
33508;DHT22;25568;37.410;-122.096;2023-02-18T03:31:24;18.70;71.80
33508;DHT22;25568;37.410;-122.096;2023-02-18T03:33:58;18.70;71.80
33508;DHT22;25568;37.410;-122.096;2023-02-18T03:36:30;18.70;71.80
33508;DHT22;25568;37.410;-122.096;2023-02-18T03:39:04;18.70;71.80
33508;DHT22;25568;37.410;-122.096;2023-02-18T03:41:35;18.70;72.70
33508;DHT22;25568;37.410;-122.096;2023-02-18T03:44:05;18.70;71.80
33508;DHT22;25568;37.410;-122.096;2023-02-18T03:46:37;18.70;71.80
33508;DHT22;25568;37.410;-122.096;2023-02-18T03:49:09;18.70;71.80
33508;DHT22;25568;37.410;-122.096;2023-02-18T03:51:38;18.70;72.00
33508;DHT22;25568;37.410;-122.096;2023-02-18T03:54:18;18.60;72.00
33508;DHT22;25568;37.410;-122.096;2023-02-18T03:56:47;18.70;72.00
33508;DHT22;25568;37.410;-122.096;2023-02-18T03:59:16;18.60;72.00
33508;DHT22;25568;37.410;-122.096;2023-02-18T04:01:45;18.60;72.10
33508;DHT22;25568;37.410;-122.096;2023-02-18T04:04:14;18.60;72.00
33508;DHT22;25568;37.410;-122.096;2023-02-18T04:06:43;18.60;72.10
33508;DHT22;25568;37.410;-122.096;2023-02-18T04:09:13;18.60;72.10
33508;DHT22;25568;37.410;-122.096;2023-02-18T04:11:43;18.60;72.10
33508;DHT22;25568;37.410;-122.096;2023-02-18T04:14:13;18.60;72.10
33508;DHT22;25568;37.410;-122.096;2023-02-18T04:16:42;18.50;72.10
33508;DHT22;25568;37.410;-122.096;2023-02-18T04:19:11;18.50;72.00
33508;DHT22;25568;37.410;-122.096;2023-02-18T04:21:39;18.50;72.00
33508;DHT22;25568;37.410;-122.096;2023-02-18T04:24:09;18.50;72.00
33508;DHT22;25568;37.410;-122.096;2023-02-18T04:26:39;18.50;72.10
33508;DHT22;25568;37.410;-122.096;2023-02-18T04:29:08;18.50;72.10
33508;DHT22;25568;37.410;-122.096;2023-02-18T04:31:37;18.40;72.00
33508;DHT22;25568;37.410;-122.096;2023-02-18T04:34:06;18.40;72.00
33508;DHT22;25568;37.410;-122.096;2023-02-18T04:36:35;18.40;72.00
33508;DHT22;25568;37.410;-122.096;2023-02-18T04:39:05;18.40;72.10
33508;DHT22;25568;37.410;-122.096;2023-02-18T04:41:33;18.40;72.20
33508;DHT22;25568;37.410;-122.096;2023-02-18T04:44:04;18.40;72.10
33508;DHT22;25568;37.410;-122.096;2023-02-18T04:46:33;18.30;72.00
33508;DHT22;25568;37.410;-122.096;2023-02-18T04:49:02;18.30;72.00
33508;DHT22;25568;37.410;-122.096;2023-02-18T04:51:31;18.30;72.00
33508;DHT22;25568;37.410;-122.096;2023-02-18T04:54:00;18.30;72.00
33508;DHT22;25568;37.410;-122.096;2023-02-18T04:56:29;18.30;72.00
33508;DHT22;25568;37.410;-122.096;2023-02-18T04:58:58;18.30;71.80
33508;DHT22;25568;37.410;-122.096;2023-02-18T05:01:28;18.30;71.90
33508;DHT22;25568;37.410;-122.096;2023-02-18T05:03:57;18.20;71.80
33508;DHT22;25568;37.410;-122.096;2023-02-18T05:06:26;18.20;71.80
33508;DHT22;25568;37.410;-122.096;2023-02-18T05:08:55;18.20;71.70
33508;DHT22;25568;37.410;-122.096;2023-02-18T05:11:24;18.20;71.70
33508;DHT22;25568;37.410;-122.096;2023-02-18T05:13:53;18.20;71.80
33508;DHT22;25568;37.410;-122.096;2023-02-18T05:16:23;18.20;71.70
33508;DHT22;25568;37.410;-122.096;2023-02-18T05:18:53;18.20;71.70
33508;DHT22;25568;37.410;-122.096;2023-02-18T05:21:22;18.10;71.60
33508;DHT22;25568;37.410;-122.096;2023-02-18T05:23:51;18.20;71.50
33508;DHT22;25568;37.410;-122.096;2023-02-18T05:26:20;18.20;71.30
33508;DHT22;25568;37.410;-122.096;2023-02-18T05:28:49;18.30;71.20
33508;DHT22;25568;37.410;-122.096;2023-02-18T05:31:18;18.30;70.90
33508;DHT22;25568;37.410;-122.096;2023-02-18T05:33:47;18.40;70.70
33508;DHT22;25568;37.410;-122.096;2023-02-18T05:36:17;18.40;70.50
33508;DHT22;25568;37.410;-122.096;2023-02-18T05:38:47;18.40;70.50
33508;DHT22;25568;37.410;-122.096;2023-02-18T05:41:15;18.50;70.40
33508;DHT22;25568;37.410;-122.096;2023-02-18T05:43:44;18.50;70.30
33508;DHT22;25568;37.410;-122.096;2023-02-18T05:46:30;18.50;70.20
33508;DHT22;25568;37.410;-122.096;2023-02-18T05:48:59;18.50;70.00
33508;DHT22;25568;37.410;-122.096;2023-02-18T05:51:29;18.50;69.90
33508;DHT22;25568;37.410;-122.096;2023-02-18T05:53:58;18.50;69.80
33508;DHT22;25568;37.410;-122.096;2023-02-18T05:56:27;18.60;69.70
33508;DHT22;25568;37.410;-122.096;2023-02-18T05:58:56;18.60;69.70
33508;DHT22;25568;37.410;-122.096;2023-02-18T06:01:25;18.50;69.60
33508;DHT22;25568;37.410;-122.096;2023-02-18T06:03:54;18.50;69.70
33508;DHT22;25568;37.410;-122.096;2023-02-18T06:06:23;18.50;70.00
33508;DHT22;25568;37.410;-122.096;2023-02-18T06:08:54;18.50;70.40
33508;DHT22;25568;37.410;-122.096;2023-02-18T06:11:23;18.50;70.70
33508;DHT22;25568;37.410;-122.096;2023-02-18T06:13:52;18.50;70.90
33508;DHT22;25568;37.410;-122.096;2023-02-18T06:16:21;18.50;71.10
33508;DHT22;25568;37.410;-122.096;2023-02-18T06:18:50;18.50;71.20
33508;DHT22;25568;37.410;-122.096;2023-02-18T06:21:19;18.50;71.30
33508;DHT22;25568;37.410;-122.096;2023-02-18T06:23:48;18.50;71.30
33508;DHT22;25568;37.410;-122.096;2023-02-18T06:26:18;18.40;71.30
33508;DHT22;25568;37.410;-122.096;2023-02-18T06:28:47;18.50;71.40
33508;DHT22;25568;37.410;-122.096;2023-02-18T06:31:16;18.50;71.50
33508;DHT22;25568;37.410;-122.096;2023-02-18T06:33:45;18.50;71.70
33508;DHT22;25568;37.410;-122.096;2023-02-18T06:36:14;18.50;72.00
33508;DHT22;25568;37.410;-122.096;2023-02-18T06:38:45;18.60;73.00
33508;DHT22;25568;37.410;-122.096;2023-02-18T06:41:14;18.60;72.30
33508;DHT22;25568;37.410;-122.096;2023-02-18T06:43:45;18.60;72.30
33508;DHT22;25568;37.410;-122.096;2023-02-18T06:46:14;18.70;71.80
33508;DHT22;25568;37.410;-122.096;2023-02-18T06:48:43;18.60;71.60
33508;DHT22;25568;37.410;-122.096;2023-02-18T06:51:11;18.60;71.50
33508;DHT22;25568;37.410;-122.096;2023-02-18T06:53:41;18.60;71.50
33508;DHT22;25568;37.410;-122.096;2023-02-18T06:56:11;18.50;71.50
33508;DHT22;25568;37.410;-122.096;2023-02-18T06:58:40;18.50;71.50
33508;DHT22;25568;37.410;-122.096;2023-02-18T07:01:10;18.40;71.50
33508;DHT22;25568;37.410;-122.096;2023-02-18T07:03:39;18.40;71.50
33508;DHT22;25568;37.410;-122.096;2023-02-18T07:06:08;18.30;71.50
33508;DHT22;25568;37.410;-122.096;2023-02-18T07:08:37;18.30;71.70
33508;DHT22;25568;37.410;-122.096;2023-02-18T07:11:07;18.30;71.80
33508;DHT22;25568;37.410;-122.096;2023-02-18T07:13:35;18.30;71.80
33508;DHT22;25568;37.410;-122.096;2023-02-18T07:16:05;18.20;71.80
33508;DHT22;25568;37.410;-122.096;2023-02-18T07:18:35;18.20;71.90
33508;DHT22;25568;37.410;-122.096;2023-02-18T07:21:04;18.10;71.70
33508;DHT22;25568;37.410;-122.096;2023-02-18T07:23:33;18.10;71.80
33508;DHT22;25568;37.410;-122.096;2023-02-18T07:26:04;18.10;71.80
33508;DHT22;25568;37.410;-122.096;2023-02-18T07:28:33;18.10;71.90
33508;DHT22;25568;37.410;-122.096;2023-02-18T07:31:02;18.00;71.80
33508;DHT22;25568;37.410;-122.096;2023-02-18T07:33:31;18.00;71.80
33508;DHT22;25568;37.410;-122.096;2023-02-18T07:36:02;17.90;71.80
33508;DHT22;25568;37.410;-122.096;2023-02-18T07:38:31;17.90;71.80
33508;DHT22;25568;37.410;-122.096;2023-02-18T07:41:00;17.90;71.80
33508;DHT22;25568;37.410;-122.096;2023-02-18T07:43:29;17.80;71.80
33508;DHT22;25568;37.410;-122.096;2023-02-18T07:45:57;17.80;72.70
33508;DHT22;25568;37.410;-122.096;2023-02-18T07:48:26;17.80;71.90
33508;DHT22;25568;37.410;-122.096;2023-02-18T07:50:55;17.80;71.90
33508;DHT22;25568;37.410;-122.096;2023-02-18T07:53:26;17.80;72.00
33508;DHT22;25568;37.410;-122.096;2023-02-18T07:55:57;17.80;71.90
33508;DHT22;25568;37.410;-122.096;2023-02-18T07:58:28;17.90;71.80
33508;DHT22;25568;37.410;-122.096;2023-02-18T08:00:58;17.90;71.70
33508;DHT22;25568;37.410;-122.096;2023-02-18T08:03:29;18.00;71.80
33508;DHT22;25568;37.410;-122.096;2023-02-18T08:05:59;18.00;71.70
33508;DHT22;25568;37.410;-122.096;2023-02-18T08:08:31;18.00;71.60
33508;DHT22;25568;37.410;-122.096;2023-02-18T08:11:01;18.00;71.70
33508;DHT22;25568;37.410;-122.096;2023-02-18T08:13:33;18.10;71.70
33508;DHT22;25568;37.410;-122.096;2023-02-18T08:16:02;18.10;71.70
33508;DHT22;25568;37.410;-122.096;2023-02-18T08:18:31;18.00;71.90
33508;DHT22;25568;37.410;-122.096;2023-02-18T08:21:00;17.90;71.90
33508;DHT22;25568;37.410;-122.096;2023-02-18T08:23:36;17.80;72.00
33508;DHT22;25568;37.410;-122.096;2023-02-18T08:26:05;17.80;72.10
33508;DHT22;25568;37.410;-122.096;2023-02-18T08:28:35;17.70;72.10
33508;DHT22;25568;37.410;-122.096;2023-02-18T08:31:04;17.70;72.50
33508;DHT22;25568;37.410;-122.096;2023-02-18T08:33:33;17.70;72.70
33508;DHT22;25568;37.410;-122.096;2023-02-18T08:36:07;17.60;72.80
33508;DHT22;25568;37.410;-122.096;2023-02-18T08:38:37;17.60;72.80
33508;DHT22;25568;37.410;-122.096;2023-02-18T08:41:07;17.50;72.80
33508;DHT22;25568;37.410;-122.096;2023-02-18T08:43:36;17.50;73.10
33508;DHT22;25568;37.410;-122.096;2023-02-18T08:46:05;17.50;73.10
33508;DHT22;25568;37.410;-122.096;2023-02-18T08:48:34;17.50;73.20
33508;DHT22;25568;37.410;-122.096;2023-02-18T08:51:11;17.60;73.30
33508;DHT22;25568;37.410;-122.096;2023-02-18T08:53:42;17.60;73.10
33508;DHT22;25568;37.410;-122.096;2023-02-18T08:56:12;17.70;73.20
33508;DHT22;25568;37.410;-122.096;2023-02-18T08:58:42;17.70;73.10
33508;DHT22;25568;37.410;-122.096;2023-02-18T09:01:12;17.80;73.20
33508;DHT22;25568;37.410;-122.096;2023-02-18T09:03:41;17.80;73.30
33508;DHT22;25568;37.410;-122.096;2023-02-18T09:06:10;17.80;73.30
33508;DHT22;25568;37.410;-122.096;2023-02-18T09:08:39;17.90;73.50
33508;DHT22;25568;37.410;-122.096;2023-02-18T09:11:10;17.90;73.60
33508;DHT22;25568;37.410;-122.096;2023-02-18T09:13:39;17.90;73.80
33508;DHT22;25568;37.410;-122.096;2023-02-18T09:16:10;17.90;74.00
33508;DHT22;25568;37.410;-122.096;2023-02-18T09:18:40;17.90;74.10
33508;DHT22;25568;37.410;-122.096;2023-02-18T09:21:10;18.00;74.20
33508;DHT22;25568;37.410;-122.096;2023-02-18T09:23:40;18.00;74.30
33508;DHT22;25568;37.410;-122.096;2023-02-18T09:26:13;18.00;74.30
33508;DHT22;25568;37.410;-122.096;2023-02-18T09:28:42;18.00;74.50
33508;DHT22;25568;37.410;-122.096;2023-02-18T09:31:13;18.00;74.60
33508;DHT22;25568;37.410;-122.096;2023-02-18T09:33:45;18.00;74.90
33508;DHT22;25568;37.410;-122.096;2023-02-18T09:36:14;18.00;75.00
33508;DHT22;25568;37.410;-122.096;2023-02-18T09:38:43;18.00;75.10
33508;DHT22;25568;37.410;-122.096;2023-02-18T09:41:23;18.00;75.30
33508;DHT22;25568;37.410;-122.096;2023-02-18T09:43:56;18.00;75.40
33508;DHT22;25568;37.410;-122.096;2023-02-18T09:46:29;18.00;75.50
33508;DHT22;25568;37.410;-122.096;2023-02-18T09:49:02;18.00;75.60
33508;DHT22;25568;37.410;-122.096;2023-02-18T09:51:31;18.00;75.70
33508;DHT22;25568;37.410;-122.096;2023-02-18T09:54:00;18.00;75.80
33508;DHT22;25568;37.410;-122.096;2023-02-18T09:56:36;18.00;75.80
33508;DHT22;25568;37.410;-122.096;2023-02-18T09:59:10;18.00;75.80
33508;DHT22;25568;37.410;-122.096;2023-02-18T10:01:41;18.00;75.80
33508;DHT22;25568;37.410;-122.096;2023-02-18T10:04:16;18.00;75.80
33508;DHT22;25568;37.410;-122.096;2023-02-18T10:06:49;18.00;75.90
33508;DHT22;25568;37.410;-122.096;2023-02-18T10:09:21;18.10;75.80
33508;DHT22;25568;37.410;-122.096;2023-02-18T10:11:55;18.10;75.30
33508;DHT22;25568;37.410;-122.096;2023-02-18T10:14:25;18.00;75.20
33508;DHT22;25568;37.410;-122.096;2023-02-18T10:16:55;18.00;75.20
33508;DHT22;25568;37.410;-122.096;2023-02-18T10:19:30;17.90;75.20
33508;DHT22;25568;37.410;-122.096;2023-02-18T10:22:01;17.90;75.40
33508;DHT22;25568;37.410;-122.096;2023-02-18T10:24:34;17.80;75.60
33508;DHT22;25568;37.410;-122.096;2023-02-18T10:27:06;17.80;75.50
33508;DHT22;25568;37.410;-122.096;2023-02-18T10:29:36;17.80;75.50
33508;DHT22;25568;37.410;-122.096;2023-02-18T10:32:11;17.70;75.50
33508;DHT22;25568;37.410;-122.096;2023-02-18T10:34:47;17.70;75.60
33508;DHT22;25568;37.410;-122.096;2023-02-18T10:37:36;17.60;75.60
33508;DHT22;25568;37.410;-122.096;2023-02-18T10:40:12;17.60;75.60
33508;DHT22;25568;37.410;-122.096;2023-02-18T10:43:01;17.60;75.70
33508;DHT22;25568;37.410;-122.096;2023-02-18T10:45:37;17.50;75.70
33508;DHT22;25568;37.410;-122.096;2023-02-18T10:48:19;17.50;75.80
33508;DHT22;25568;37.410;-122.096;2023-02-18T10:50:50;17.40;75.80
33508;DHT22;25568;37.410;-122.096;2023-02-18T10:53:28;17.40;75.90
33508;DHT22;25568;37.410;-122.096;2023-02-18T10:55:59;17.40;75.80
33508;DHT22;25568;37.410;-122.096;2023-02-18T10:58:33;17.30;75.80
33508;DHT22;25568;37.410;-122.096;2023-02-18T11:01:04;17.30;75.80
33508;DHT22;25568;37.410;-122.096;2023-02-18T11:03:41;17.30;75.90
33508;DHT22;25568;37.410;-122.096;2023-02-18T11:06:21;17.20;75.90
33508;DHT22;25568;37.410;-122.096;2023-02-18T11:08:53;17.20;75.90
33508;DHT22;25568;37.410;-122.096;2023-02-18T11:11:24;17.20;76.00
33508;DHT22;25568;37.410;-122.096;2023-02-18T11:14:00;17.20;76.10
33508;DHT22;25568;37.410;-122.096;2023-02-18T11:16:37;17.30;76.10
33508;DHT22;25568;37.410;-122.096;2023-02-18T11:19:32;17.30;76.10
33508;DHT22;25568;37.410;-122.096;2023-02-18T11:22:08;17.40;76.40
33508;DHT22;25568;37.410;-122.096;2023-02-18T11:24:40;17.40;76.30
33508;DHT22;25568;37.410;-122.096;2023-02-18T11:27:20;17.50;76.30
33508;DHT22;25568;37.410;-122.096;2023-02-18T11:29:55;17.60;76.30
33508;DHT22;25568;37.410;-122.096;2023-02-18T11:32:27;17.60;76.30
33508;DHT22;25568;37.410;-122.096;2023-02-18T11:34:57;17.60;76.20
33508;DHT22;25568;37.410;-122.096;2023-02-18T11:37:26;17.60;76.20
33508;DHT22;25568;37.410;-122.096;2023-02-18T11:39:55;17.70;76.20
33508;DHT22;25568;37.410;-122.096;2023-02-18T11:42:25;17.70;76.20
33508;DHT22;25568;37.410;-122.096;2023-02-18T11:44:57;17.70;76.20
33508;DHT22;25568;37.410;-122.096;2023-02-18T11:47:28;17.70;76.20
33508;DHT22;25568;37.410;-122.096;2023-02-18T11:50:13;17.70;76.30
33508;DHT22;25568;37.410;-122.096;2023-02-18T11:52:46;17.60;76.40
33508;DHT22;25568;37.410;-122.096;2023-02-18T11:55:18;17.70;76.60
33508;DHT22;25568;37.410;-122.096;2023-02-18T11:57:50;17.60;76.60
33508;DHT22;25568;37.410;-122.096;2023-02-18T12:00:35;17.60;76.60
33508;DHT22;25568;37.410;-122.096;2023-02-18T12:03:12;17.60;76.80
33508;DHT22;25568;37.410;-122.096;2023-02-18T12:05:44;17.70;76.80
33508;DHT22;25568;37.410;-122.096;2023-02-18T12:08:16;17.70;76.90
33508;DHT22;25568;37.410;-122.096;2023-02-18T12:10:48;17.70;76.90
33508;DHT22;25568;37.410;-122.096;2023-02-18T12:13:24;17.70;76.90
33508;DHT22;25568;37.410;-122.096;2023-02-18T12:16:04;17.70;77.00
33508;DHT22;25568;37.410;-122.096;2023-02-18T12:18:49;17.70;77.10
33508;DHT22;25568;37.410;-122.096;2023-02-18T12:21:29;17.70;77.20
33508;DHT22;25568;37.410;-122.096;2023-02-18T12:24:13;17.80;77.20
33508;DHT22;25568;37.410;-122.096;2023-02-18T12:26:51;17.80;77.40
33508;DHT22;25568;37.410;-122.096;2023-02-18T12:29:53;17.80;77.40
33508;DHT22;25568;37.410;-122.096;2023-02-18T12:32:38;17.80;77.40
33508;DHT22;25568;37.410;-122.096;2023-02-18T12:35:43;17.80;77.40
33508;DHT22;25568;37.410;-122.096;2023-02-18T12:41:32;17.80;77.40
33508;DHT22;25568;37.410;-122.096;2023-02-18T12:44:15;17.80;77.40
33508;DHT22;25568;37.410;-122.096;2023-02-18T12:47:01;17.80;77.40
33508;DHT22;25568;37.410;-122.096;2023-02-18T12:52:52;17.80;77.40
33508;DHT22;25568;37.410;-122.096;2023-02-18T12:55:45;17.80;77.40
33508;DHT22;25568;37.410;-122.096;2023-02-18T12:58:24;17.80;77.30
33508;DHT22;25568;37.410;-122.096;2023-02-18T13:01:12;17.80;77.20
33508;DHT22;25568;37.410;-122.096;2023-02-18T13:04:11;17.80;77.10
33508;DHT22;25568;37.410;-122.096;2023-02-18T13:12:58;17.80;77.00
33508;DHT22;25568;37.410;-122.096;2023-02-18T13:15:37;17.80;76.90
33508;DHT22;25568;37.410;-122.096;2023-02-18T13:18:11;17.80;76.80
33508;DHT22;25568;37.410;-122.096;2023-02-18T13:20:44;17.80;76.80
33508;DHT22;25568;37.410;-122.096;2023-02-18T13:23:19;17.80;76.70
33508;DHT22;25568;37.410;-122.096;2023-02-18T13:25:54;17.80;76.60
33508;DHT22;25568;37.410;-122.096;2023-02-18T13:28:28;17.90;76.50
33508;DHT22;25568;37.410;-122.096;2023-02-18T13:31:21;17.90;76.00
33508;DHT22;25568;37.410;-122.096;2023-02-18T13:33:57;17.80;75.80
33508;DHT22;25568;37.410;-122.096;2023-02-18T13:36:37;17.70;75.80
33508;DHT22;25568;37.410;-122.096;2023-02-18T13:39:13;17.70;75.90
33508;DHT22;25568;37.410;-122.096;2023-02-18T13:41:49;17.60;75.90
33508;DHT22;25568;37.410;-122.096;2023-02-18T13:47:39;17.50;76.00
33508;DHT22;25568;37.410;-122.096;2023-02-18T13:50:22;17.50;76.10
33508;DHT22;25568;37.410;-122.096;2023-02-18T13:53:10;17.40;76.00
33508;DHT22;25568;37.410;-122.096;2023-02-18T13:55:45;17.40;76.00
33508;DHT22;25568;37.410;-122.096;2023-02-18T13:58:19;17.30;76.00
33508;DHT22;25568;37.410;-122.096;2023-02-18T14:00:52;17.30;76.80
33508;DHT22;25568;37.410;-122.096;2023-02-18T14:03:33;17.30;76.10
33508;DHT22;25568;37.410;-122.096;2023-02-18T14:06:14;17.20;76.10
33508;DHT22;25568;37.410;-122.096;2023-02-18T14:08:43;17.20;76.20
33508;DHT22;25568;37.410;-122.096;2023-02-18T14:11:33;17.10;76.30
33508;DHT22;25568;37.410;-122.096;2023-02-18T14:14:35;17.10;76.30
33508;DHT22;25568;37.410;-122.096;2023-02-18T14:17:33;17.10;76.40
33508;DHT22;25568;37.410;-122.096;2023-02-18T14:23:39;17.00;76.40
33508;DHT22;25568;37.410;-122.096;2023-02-18T14:26:17;17.00;76.50
33508;DHT22;25568;37.410;-122.096;2023-02-18T14:28:54;17.10;76.60
33508;DHT22;25568;37.410;-122.096;2023-02-18T14:31:43;17.20;76.40
33508;DHT22;25568;37.410;-122.096;2023-02-18T14:34:46;17.20;76.40
33508;DHT22;25568;37.410;-122.096;2023-02-18T14:43:10;17.30;76.90
33508;DHT22;25568;37.410;-122.096;2023-02-18T14:49:17;17.20;77.60
33508;DHT22;25568;37.410;-122.096;2023-02-18T14:51:51;17.20;77.80
33508;DHT22;25568;37.410;-122.096;2023-02-18T14:54:23;17.20;77.90
33508;DHT22;25568;37.410;-122.096;2023-02-18T14:56:55;17.20;77.90
33508;DHT22;25568;37.410;-122.096;2023-02-18T14:59:28;17.30;77.90
33508;DHT22;25568;37.410;-122.096;2023-02-18T15:01:57;17.20;78.10
33508;DHT22;25568;37.410;-122.096;2023-02-18T15:04:29;17.20;77.90
33508;DHT22;25568;37.410;-122.096;2023-02-18T15:06:59;17.20;77.90
33508;DHT22;25568;37.410;-122.096;2023-02-18T15:09:28;17.30;78.00
33508;DHT22;25568;37.410;-122.096;2023-02-18T15:11:59;17.30;78.00
33508;DHT22;25568;37.410;-122.096;2023-02-18T15:14:31;17.30;77.90
33508;DHT22;25568;37.410;-122.096;2023-02-18T15:17:05;17.30;77.90
33508;DHT22;25568;37.410;-122.096;2023-02-18T15:19:40;17.30;77.90
33508;DHT22;25568;37.410;-122.096;2023-02-18T15:22:16;17.30;78.10
33508;DHT22;25568;37.410;-122.096;2023-02-18T15:24:45;17.40;78.20
33508;DHT22;25568;37.410;-122.096;2023-02-18T15:27:17;17.30;78.10
33508;DHT22;25568;37.410;-122.096;2023-02-18T15:29:49;17.40;79.00
33508;DHT22;25568;37.410;-122.096;2023-02-18T15:32:20;17.40;78.30
33508;DHT22;25568;37.410;-122.096;2023-02-18T15:34:52;17.40;78.20
33508;DHT22;25568;37.410;-122.096;2023-02-18T15:37:22;17.50;78.00
33508;DHT22;25568;37.410;-122.096;2023-02-18T15:39:51;17.60;77.20
33508;DHT22;25568;37.410;-122.096;2023-02-18T15:42:25;17.60;76.80
33508;DHT22;25568;37.410;-122.096;2023-02-18T15:44:57;17.60;76.60
33508;DHT22;25568;37.410;-122.096;2023-02-18T15:47:26;17.50;76.40
33508;DHT22;25568;37.410;-122.096;2023-02-18T15:50:00;17.50;76.80
33508;DHT22;25568;37.410;-122.096;2023-02-18T15:52:32;17.40;76.80
33508;DHT22;25568;37.410;-122.096;2023-02-18T15:55:03;17.40;76.80
33508;DHT22;25568;37.410;-122.096;2023-02-18T15:57:36;17.30;77.60
33508;DHT22;25568;37.410;-122.096;2023-02-18T16:00:17;17.30;77.10
33508;DHT22;25568;37.410;-122.096;2023-02-18T16:02:53;17.30;77.10